createdAt,value
2019-05-11T08:07:23.846Z,10.33
2019-05-11T08:09:52.053Z,10.29
2019-05-11T08:12:20.260Z,10.37
2019-05-11T08:14:57.766Z,10.48
2019-05-11T08:17:18.760Z,10.40
2019-05-11T08:19:47.702Z,10.20
2019-05-11T08:22:16.004Z,10.08
2019-05-11T08:24:44.216Z,10.22
2019-05-11T08:27:12.423Z,10.32
2019-05-11T08:29:40.632Z,10.27
2019-05-11T08:32:08.856Z,10.26
2019-05-11T08:34:37.073Z,10.15
2019-05-11T08:37:05.302Z,10.02
2019-05-11T08:39:33.532Z,10.02
2019-05-11T08:42:03.318Z,10.08
2019-05-11T08:44:31.734Z,10.20
2019-05-11T08:46:59.942Z,10.35
2019-05-11T08:49:28.824Z,10.40
2019-05-11T08:51:57.990Z,10.45
2019-05-11T08:54:28.656Z,10.63
2019-05-11T08:56:58.541Z,10.53
2019-05-11T08:59:27.857Z,10.48
2019-05-11T09:01:58.535Z,10.70
2019-05-11T09:04:28.622Z,10.48
2019-05-11T09:06:58.445Z,10.41
2019-05-11T09:09:28.440Z,10.37
2019-05-11T09:11:55.895Z,10.34
2019-05-11T09:14:24.113Z,10.45
2019-05-11T09:16:52.306Z,10.63
2019-05-11T09:19:20.514Z,10.63
2019-05-11T09:21:48.716Z,10.83
2019-05-11T09:24:18.961Z,10.83
2019-05-11T09:26:47.949Z,10.84
2019-05-11T09:29:17.942Z,10.82
2019-05-11T09:31:48.561Z,10.57
2019-05-11T09:34:18.116Z,10.45
2019-05-11T09:36:47.955Z,10.45
2019-05-11T09:39:17.753Z,10.53
2019-05-11T09:41:46.040Z,10.69
2019-05-11T09:44:14.261Z,10.68
2019-05-11T09:46:45.036Z,10.80
2019-05-11T09:49:13.260Z,11.06
2019-05-11T09:51:41.762Z,11.43
2019-05-11T09:54:10.130Z,11.34
2019-05-11T09:56:40.856Z,11.20
2019-05-11T09:59:09.091Z,11.23
2019-05-11T10:01:37.956Z,11.07
2019-05-11T10:04:08.755Z,10.85
2019-05-11T10:06:38.828Z,10.71
2019-05-11T10:09:08.203Z,10.64
2019-05-11T10:11:36.685Z,10.72
2019-05-11T10:14:04.998Z,10.79
2019-05-11T10:16:33.205Z,10.73
2019-05-11T10:19:01.421Z,10.72
2019-05-11T10:21:29.623Z,10.57
2019-05-11T10:23:58.097Z,10.58
2019-05-11T10:26:27.897Z,10.63
2019-05-11T10:28:58.312Z,10.44
2019-05-11T10:31:28.535Z,10.40
2019-05-11T10:36:15.604Z,10.46
2019-05-11T10:38:43.849Z,10.26
2019-05-11T10:41:12.072Z,10.39
2019-05-11T10:43:40.284Z,10.43
2019-05-11T10:46:16.946Z,10.47
2019-05-11T10:48:39.024Z,10.59
2019-05-11T10:51:08.270Z,10.44
2019-05-11T10:53:38.439Z,10.30
2019-05-11T10:56:08.563Z,9.99
2019-05-11T10:58:37.911Z,9.92
2019-05-11T11:01:08.628Z,9.81
2019-05-11T11:03:37.738Z,9.87
2019-05-11T11:06:08.289Z,9.77
2019-05-11T11:08:38.119Z,9.72
2019-05-11T11:11:08.053Z,9.76
2019-05-11T11:13:35.828Z,9.84
2019-05-11T11:16:04.106Z,9.84
2019-05-11T11:18:32.299Z,9.80
2019-05-11T11:21:00.555Z,9.60
2019-05-11T11:23:28.762Z,9.48
2019-05-11T11:25:58.577Z,9.51
2019-05-11T11:28:28.006Z,9.38
2019-05-11T11:30:58.295Z,9.38
2019-05-11T11:33:27.701Z,9.38
2019-05-11T11:35:57.950Z,9.33
2019-05-11T11:38:28.059Z,9.11
2019-05-11T11:40:55.789Z,8.99
2019-05-11T11:43:24.093Z,9.15
2019-05-11T11:45:52.260Z,9.21
2019-05-11T11:48:20.472Z,9.29
2019-05-11T11:50:48.955Z,9.24
2019-05-11T11:53:18.834Z,9.29
2019-05-11T11:55:48.190Z,9.30
2019-05-11T11:58:22.660Z,9.28
2019-05-11T12:00:48.229Z,9.17
2019-05-11T12:03:18.540Z,9.03
2019-05-11T12:05:47.741Z,8.94
2019-05-11T12:08:16.106Z,9.08
2019-05-11T12:10:44.304Z,9.19
2019-05-11T12:13:12.565Z,9.21
2019-05-11T12:15:40.781Z,9.29
2019-05-11T12:18:08.974Z,9.22
2019-05-11T12:20:38.902Z,9.19
2019-05-11T12:23:08.733Z,9.22
2019-05-11T12:25:40.236Z,9.02
2019-05-11T12:41:08.798Z,8.92
2019-05-11T12:43:38.191Z,9.01
2019-05-11T12:46:08.124Z,9.04
2019-05-11T12:48:37.873Z,9.02
2019-05-11T12:51:08.043Z,9.11
2019-05-11T12:53:37.881Z,9.20
2019-05-11T12:56:08.271Z,9.19
2019-05-11T12:58:36.112Z,9.25
2019-05-11T13:01:04.319Z,9.30
2019-05-11T13:03:32.546Z,9.36
2019-05-11T13:06:00.750Z,9.36
2019-05-11T13:08:28.954Z,9.31
2019-05-11T13:10:58.435Z,9.30
2019-05-11T13:13:28.562Z,9.39
2019-05-11T13:15:58.560Z,9.36
2019-05-11T13:18:27.927Z,9.33
2019-05-11T13:20:58.595Z,9.34
2019-05-11T13:23:27.784Z,9.62
2019-05-11T13:25:58.359Z,9.58
2019-05-11T13:28:28.235Z,9.63
2019-05-11T13:30:58.019Z,9.69
2019-05-11T13:33:27.822Z,9.63
2019-05-11T13:35:57.836Z,9.78
2019-05-11T13:38:28.119Z,9.76
2019-05-11T13:40:55.695Z,9.56
2019-05-11T13:43:23.908Z,9.51
2019-05-11T13:45:52.092Z,9.54
2019-05-11T13:48:20.293Z,9.42
2019-05-11T13:50:48.487Z,9.26
2019-05-11T13:53:18.434Z,9.16
2019-05-11T13:55:48.103Z,8.96
2019-05-11T13:58:19.466Z,8.88
2019-05-11T14:00:48.096Z,8.93
2019-05-11T14:03:18.348Z,8.98
2019-05-11T14:05:47.897Z,8.94
2019-05-11T14:08:18.352Z,8.98
2019-05-11T14:10:46.078Z,8.99
2019-05-11T14:13:14.281Z,9.10
2019-05-11T14:15:42.467Z,9.01
2019-05-11T14:18:12.051Z,9.03
2019-05-11T14:20:40.340Z,9.14
2019-05-11T14:23:08.548Z,9.10
2019-05-11T14:25:38.103Z,9.03
2019-05-11T14:28:08.887Z,9.04
2019-05-11T14:30:38.675Z,8.97
2019-05-11T14:33:08.599Z,9.03
2019-05-11T14:35:38.371Z,9.09
2019-05-11T14:38:08.021Z,9.00
2019-05-11T14:40:38.709Z,8.92
2019-05-11T14:43:08.371Z,8.96
2019-05-11T14:45:38.037Z,8.91
2019-05-11T14:48:22.135Z,8.93
2019-05-11T14:50:38.448Z,8.97
2019-05-11T14:53:08.446Z,8.99
2019-05-11T14:55:38.095Z,8.94
2019-05-11T14:58:09.168Z,8.87
2019-05-11T15:00:39.216Z,8.96
2019-05-11T15:03:07.892Z,8.99
2019-05-11T15:05:37.609Z,9.07
2019-05-11T15:08:06.089Z,9.13
2019-05-11T15:10:34.292Z,9.09
2019-05-11T15:13:02.504Z,9.00
2019-05-11T15:15:30.703Z,9.05
2019-05-11T15:17:58.912Z,9.13
2019-05-11T15:20:28.451Z,9.19
2019-05-11T15:22:58.133Z,9.23
2019-05-11T15:25:28.651Z,9.40
2019-05-11T15:27:58.125Z,9.45
2019-05-11T15:30:28.534Z,9.44
2019-05-11T15:32:58.065Z,9.45
2019-05-11T15:35:28.282Z,9.47
2019-05-11T15:37:58.055Z,9.35
2019-05-11T15:40:27.833Z,9.30
2019-05-11T15:42:58.340Z,9.17
2019-05-11T15:45:27.703Z,9.10
2019-05-11T15:47:56.154Z,9.18
2019-05-11T15:50:24.400Z,9.07
2019-05-11T15:52:52.586Z,9.07
2019-05-11T15:55:22.429Z,9.06
2019-05-11T15:57:50.622Z,9.04
2019-05-11T16:00:18.872Z,8.96
2019-05-11T16:02:49.039Z,9.01
2019-05-11T16:05:18.194Z,8.95
2019-05-11T16:07:48.903Z,9.05
2019-05-11T16:10:18.820Z,8.98
2019-05-11T16:12:48.571Z,8.94
2019-05-11T16:15:19.105Z,9.02
2019-05-11T16:17:48.759Z,9.17
2019-05-11T16:20:18.122Z,9.30
2019-05-11T16:22:47.945Z,9.19
2019-05-11T16:25:19.287Z,9.20
2019-05-11T16:27:46.295Z,9.18
2019-05-11T16:30:14.501Z,9.17
2019-05-11T16:32:42.706Z,9.23
2019-05-11T16:35:10.911Z,9.31
2019-05-11T16:37:39.099Z,9.27
2019-05-11T16:40:07.774Z,9.25
2019-05-11T16:42:38.293Z,9.29
2019-05-11T16:45:08.480Z,9.32
2019-05-11T16:47:38.935Z,9.22
2019-05-11T16:50:08.519Z,9.28
2019-05-11T16:52:38.624Z,9.28
2019-05-11T16:55:07.870Z,9.38
2019-05-11T16:57:38.211Z,9.41
2019-05-11T17:00:08.813Z,9.42
2019-05-11T17:02:38.210Z,9.37
2019-05-11T17:05:07.855Z,9.34
2019-05-11T17:07:37.685Z,9.30
2019-05-11T17:10:08.320Z,9.30
2019-05-11T17:12:38.746Z,9.33
2019-05-11T17:15:09.797Z,9.35
2019-05-11T17:17:38.002Z,9.38
2019-05-11T17:20:08.055Z,9.31
2019-05-11T17:22:38.737Z,9.34
2019-05-11T17:25:08.558Z,9.35
2019-05-11T17:27:37.721Z,9.30
2019-05-11T17:30:08.822Z,9.24
2019-05-11T17:32:38.270Z,9.28
2019-05-11T17:35:08.464Z,9.31
2019-05-11T17:37:38.026Z,9.29
2019-05-11T17:40:08.998Z,9.34
2019-05-11T17:42:37.822Z,9.40
2019-05-11T17:45:08.114Z,9.45
2019-05-11T17:47:38.694Z,9.48
2019-05-11T17:50:08.161Z,9.48
2019-05-11T17:52:38.424Z,9.46
2019-05-11T17:55:07.007Z,9.43
2019-05-11T17:57:35.202Z,9.46
2019-05-11T18:00:05.124Z,9.48
2019-05-11T18:02:33.316Z,9.51
2019-05-11T18:05:01.522Z,9.51
2019-05-11T18:07:30.920Z,9.52
2019-05-11T18:09:59.403Z,9.48
2019-05-11T18:12:28.555Z,9.47
2019-05-11T18:14:58.543Z,9.45
2019-05-11T18:17:26.848Z,9.45
2019-05-11T18:19:55.041Z,9.37
2019-05-11T18:22:23.243Z,9.35
2019-05-11T18:24:51.450Z,9.36
2019-05-11T18:27:19.642Z,9.34
2019-05-11T18:29:48.561Z,9.29
2019-05-11T18:32:16.938Z,9.23
2019-05-11T18:34:45.127Z,9.19
2019-05-11T18:37:13.357Z,9.22
2019-05-11T18:39:41.617Z,9.22
2019-05-11T18:42:09.834Z,9.23
2019-05-11T18:44:38.102Z,9.15
2019-05-11T18:47:08.656Z,9.13
2019-05-11T18:49:38.200Z,9.10
2019-05-11T18:52:08.209Z,9.05
2019-05-11T18:54:38.368Z,9.06
2019-05-11T18:57:08.131Z,9.02
2019-05-11T18:59:37.840Z,8.98
2019-05-11T19:02:08.237Z,9.02
2019-05-11T19:04:38.037Z,9.00
2019-05-11T19:07:14.253Z,9.00
2019-05-11T19:09:37.449Z,8.93
2019-05-11T19:12:05.548Z,8.89
2019-05-11T19:14:33.740Z,8.83
2019-05-11T19:17:01.955Z,8.74
2019-05-11T19:19:30.138Z,8.75
2019-05-11T19:21:58.764Z,8.78
2019-05-11T19:24:27.784Z,8.75
2019-05-11T19:26:58.702Z,8.71
2019-05-11T19:29:28.190Z,8.67
2019-05-11T19:31:58.043Z,8.58
2019-05-11T19:34:27.995Z,8.51
2019-05-11T19:36:57.960Z,8.49
2019-05-11T19:39:27.905Z,8.57
2019-05-11T19:41:57.989Z,8.56
2019-05-11T19:44:27.845Z,8.55
2019-05-11T19:46:55.642Z,8.51
2019-05-11T19:49:23.839Z,8.44
2019-05-11T19:51:52.056Z,8.44
2019-05-11T19:54:20.251Z,8.31
2019-05-11T19:56:51.779Z,8.28
2019-05-11T19:59:18.385Z,8.31
2019-05-11T20:01:46.597Z,8.31
2019-05-11T20:04:14.785Z,8.28
2019-05-11T20:06:42.998Z,8.30
2019-05-11T20:09:11.198Z,8.13
2019-05-11T20:11:39.400Z,8.16
2019-05-11T20:14:08.135Z,8.10
2019-05-11T20:16:36.488Z,8.04
2019-05-11T20:19:04.674Z,8.01
2019-05-11T20:21:32.889Z,8.04
2019-05-11T20:24:01.096Z,8.00
2019-05-11T20:26:29.286Z,7.97
2019-05-11T20:28:58.799Z,7.99
2019-05-11T20:31:27.704Z,8.01
2019-05-11T20:33:56.063Z,7.93
2019-05-11T20:36:24.257Z,7.88
2019-05-11T20:38:52.460Z,7.81
2019-05-11T20:41:20.649Z,7.78
2019-05-11T20:43:48.854Z,7.73
2019-05-11T20:46:18.472Z,7.72
2019-05-11T20:48:48.534Z,7.66
2019-05-11T20:51:32.761Z,7.69
2019-05-11T20:53:48.839Z,7.68
2019-05-11T20:56:17.838Z,7.61
2019-05-11T20:58:59.509Z,7.60
2019-05-11T21:01:28.879Z,7.58
2019-05-11T21:03:58.513Z,7.49
2019-05-11T21:06:29.347Z,7.46
2019-05-11T21:08:56.997Z,7.42
2019-05-11T21:11:25.145Z,7.40
2019-05-11T21:13:53.355Z,7.42
2019-05-11T21:16:21.629Z,7.43
2019-05-11T21:18:49.853Z,7.37
2019-05-11T21:21:18.061Z,7.30
2019-05-11T21:23:48.655Z,7.30
2019-05-11T21:26:18.674Z,7.25
2019-05-11T21:28:48.530Z,7.21
2019-05-11T21:31:18.404Z,7.18
2019-05-11T21:33:46.083Z,7.20
2019-05-11T21:36:14.284Z,7.14
2019-05-11T21:38:42.503Z,7.09
2019-05-11T21:41:10.730Z,7.09
2019-05-11T21:43:38.949Z,7.12
2019-05-11T21:46:08.145Z,7.13
2019-05-11T21:48:38.472Z,7.15
2019-05-11T21:51:08.517Z,7.18
2019-05-11T21:53:38.200Z,7.11
2019-05-11T21:56:08.122Z,7.03
2019-05-11T21:58:37.770Z,7.03
2019-05-11T22:01:06.231Z,7.04
2019-05-11T22:03:34.454Z,7.01
2019-05-11T22:06:02.645Z,7.02
2019-05-11T22:08:30.868Z,7.04
2019-05-11T22:11:00.024Z,7.06
2019-05-11T22:13:28.890Z,7.07
2019-05-11T22:15:58.098Z,7.07
2019-05-11T22:18:30.819Z,7.07
2019-05-11T22:20:57.984Z,7.08
2019-05-11T22:23:28.206Z,7.09
2019-05-11T22:25:58.710Z,7.11
2019-05-11T22:28:28.452Z,7.10
2019-05-11T22:30:56.422Z,7.09
2019-05-11T22:33:24.627Z,7.09
2019-05-11T22:35:52.839Z,7.06
2019-05-11T22:38:21.104Z,7.03
2019-05-11T22:40:49.331Z,7.02
2019-05-11T22:43:18.168Z,6.98
2019-05-11T22:45:48.530Z,6.96
2019-05-11T22:48:16.457Z,6.88
2019-05-11T22:50:44.663Z,6.82
2019-05-11T22:53:12.863Z,6.82
2019-05-11T22:55:41.080Z,6.81
2019-05-11T22:58:09.282Z,6.79
2019-05-11T23:00:39.797Z,6.67
2019-05-11T23:03:10.796Z,6.65
2019-05-11T23:05:38.353Z,6.72
2019-05-11T23:08:07.653Z,6.62
2019-05-11T23:10:36.063Z,6.58
2019-05-11T23:13:04.259Z,6.57
2019-05-11T23:15:32.466Z,6.59
2019-05-11T23:18:00.667Z,6.61
2019-05-11T23:20:30.198Z,6.64
2019-05-11T23:23:01.505Z,6.63
2019-05-11T23:25:28.846Z,6.54
2019-05-11T23:27:58.743Z,6.58
2019-05-11T23:30:28.062Z,6.58
2019-05-11T23:32:58.590Z,6.59
2019-05-11T23:35:28.434Z,6.54
2019-05-11T23:37:58.085Z,6.55
2019-05-11T23:40:28.398Z,6.55
2019-05-11T23:42:57.880Z,6.54
2019-05-11T23:45:27.940Z,6.53
2019-05-11T23:47:56.114Z,6.56
2019-05-11T23:50:24.318Z,6.54
2019-05-11T23:53:05.384Z,6.49
2019-05-11T23:55:22.442Z,6.48
2019-05-11T23:57:50.648Z,6.43
